Dunwoody, Georgia
Current Conditions -  °F | °C
As of 4:53 AM on Saturday 22 Nov 2014 (Local Time) from KPDK Reporting Station
Clear Clear  
Wind Chill: 35°   Ceiling: Unl
Heat Index: 40°   Visibility: 10mi
Dew Point: 28°   Wind: 7mph
Humidity: 63%   Direction: 70°ENE
Pressure: 30.44"   Gusts: NA
Location:  33.95°N, 84.33°W
Report Text: KPDK 220953Z 07006KT 10SM CLR 04/M02 A3044 RMK AO2 SLP312 T00441022
Loading
Personal Weather Stations






























Interactive Weather Map New forecast layout! Learn more

10-Day Weather Forecast

Advertisements
Track Severe Weather on mobile